Details From KEGE - Eagle Co Rgnl
To KASE - Aspen Pitkin Co Sardy Fld
Flight Number -
Tags Decoded
Created
Modified
Stats Distance 25 nm / 47 km
Max Altitude 0 ft / 0 m
Waypoints 5
Social Downloads 2
Likes 0
Share VATSIM

Download

Looking for another format? Having issues loading an existing format? Contact us
Advertisement - Login to hide

Notes

Decoded

Route

KEGE NUTOE JOSAN SAYYO KASE

ID Type Via Altitude Latitude Longitude Leg Dist Tot Dist Heading (true) Name
O KEGE APT - 0 ft / 0 m 39.64472˚ -106.92333˚ - 0 nm - EAGLE CO RGNL
NUTOE FIX - 0 ft / 0 m 39.34460˚ -106.92691˚ 18 nm 18 nm 181° / 181° -
JOSAN FIX - 0 ft / 0 m 39.28377˚ -106.89780˚ 3 nm 21 nm 160° / 160° -
SAYYO FIX - 0 ft / 0 m 39.24390˚ -106.87875˚ 2 nm 24 nm 160° / 160° -
O KASE APT - 0 ft / 0 m 39.23217˚ -106.87315˚ 0 nm 25 nm 160° / 160° -

Altitude Profile

Advertisement - Login to hide

KEGE

Details ICAO KEGE (EGE)
Name EAGLE CO RGNL
Region United States
Timezone America/Denver (UTC-7.0)
Stats Elevation 6,540 ft / 1,993 m (AMSL)
Location 39.642567° -106.917696°
Runways 1
Magnetic Variation 9.164° E

METAR

KEGE 181856Z 00000KT 10SM CLR M03/M11 A3026 RMK AO2 SLP317 T10331111

Decode

TAF

KEGE 181736Z 1818/1918 VRB04KT P6SM SCT120 BKN200

Decode

Departure Runways

ID Width Length Bearing (true) Bearing (mag) Surface Threshold Offset Overrun Length
07 150 ft / 46 m 7,981 ft / 2,433 m 81.90° 72.74° Asphalt 0 ft / 0 m 0 ft / 0 m
25 150 ft / 46 m 7,981 ft / 2,433 m 261.92° 252.76° Asphalt 0 ft / 0 m 0 ft / 0 m

KASE

Details ICAO KASE (ASE)
Name Aspen Pitkin Co Sardy Fld
Region United States
Timezone America/Denver (UTC-7.0)
Stats Elevation 7,820 ft / 2,384 m (AMSL)
Location 39.223164° -106.868847°
Runways 1
Magnetic Variation 9.095° E

METAR

KASE 181853Z 33007KT 10SM CLR 01/M12 A3017 RMK AO2 SLP225 T00061122

Decode

TAF

KASE 181736Z 1818/1918 34005KT P6SM FEW110 SCT200 FM190100 22007KT P6SM SCT100 BKN200 FM191500 VRB03KT P6SM SCT100 BKN120

Decode

Destination Runways

ID Width Length Bearing (true) Bearing (mag) Surface Threshold Offset Overrun Length
15 100 ft / 30 m 7,011 ft / 2,137 m 159.71° 150.62° Asphalt 0 ft / 0 m 499 ft / 152 m
33 100 ft / 30 m 7,011 ft / 2,137 m 339.71° 330.62° Asphalt 0 ft / 0 m 0 ft / 0 m

Approach Navaids

Runway Type Ident Frequency Range Bearing (true) Bearing (mag) Slope Elevation
15 Localiser IPKN 108.50 MHz 25 nm / 46 km 312.00° 302.91° - 10,768 ft / 3,282 m (AMSL)
15 Localiser IASE 111.15 MHz 18 nm / 33 km 159.71° 150.62° - 7,832 ft / 2,387 m (AMSL)
15 DME IASE 111.15 MHz 18 nm / 33 km - - - 7,830 ft / 2,387 m (AMSL)

Popular Alternatives